sensor_id;sensor_type;location;lat;lon;timestamp;pressure;altitude;pressure_sealevel;temperature;humidity
78411;BME280;67706;51.074;-1.796;2023-08-06T00:01:45;101028.75;;;12.09;88.46
78411;BME280;67706;51.074;-1.796;2023-08-06T00:04:12;101025.84;;;12.10;88.58
78411;BME280;67706;51.074;-1.796;2023-08-06T00:06:40;101031.53;;;12.09;88.42
78411;BME280;67706;51.074;-1.796;2023-08-06T00:09:07;101029.59;;;12.03;88.68
78411;BME280;67706;51.074;-1.796;2023-08-06T00:11:33;101030.44;;;12.03;88.91
78411;BME280;67706;51.074;-1.796;2023-08-06T00:14:00;101033.84;;;12.05;88.72
78411;BME280;67706;51.074;-1.796;2023-08-06T00:16:27;101030.59;;;11.95;89.22
78411;BME280;67706;51.074;-1.796;2023-08-06T00:18:53;101030.34;;;11.90;89.41
78411;BME280;67706;51.074;-1.796;2023-08-06T00:21:20;101035.03;;;11.89;89.36
78411;BME280;67706;51.074;-1.796;2023-08-06T00:23:48;101035.41;;;11.86;89.69
78411;BME280;67706;51.074;-1.796;2023-08-06T00:26:15;101035.81;;;11.83;89.57
78411;BME280;67706;51.074;-1.796;2023-08-06T00:28:41;101046.19;;;11.88;89.57
78411;BME280;67706;51.074;-1.796;2023-08-06T00:31:08;101047.31;;;11.93;88.96
78411;BME280;67706;51.074;-1.796;2023-08-06T00:33:35;101040.25;;;11.84;89.39
78411;BME280;67706;51.074;-1.796;2023-08-06T00:36:02;101050.00;;;11.87;89.15
78411;BME280;67706;51.074;-1.796;2023-08-06T00:38:28;101054.00;;;11.84;89.11
78411;BME280;67706;51.074;-1.796;2023-08-06T00:40:56;101064.94;;;11.78;89.85
78411;BME280;67706;51.074;-1.796;2023-08-06T00:43:23;101063.28;;;11.77;89.57
78411;BME280;67706;51.074;-1.796;2023-08-06T00:45:50;101055.03;;;11.77;89.56
78411;BME280;67706;51.074;-1.796;2023-08-06T00:48:16;101063.28;;;11.77;89.42
78411;BME280;67706;51.074;-1.796;2023-08-06T00:50:43;101068.78;;;11.77;89.30
78411;BME280;67706;51.074;-1.796;2023-08-06T00:53:10;101078.63;;;11.71;89.29
78411;BME280;67706;51.074;-1.796;2023-08-06T00:55:37;101082.84;;;11.67;89.76
78411;BME280;67706;51.074;-1.796;2023-08-06T00:58:06;101081.50;;;11.63;90.05
78411;BME280;67706;51.074;-1.796;2023-08-06T01:00:32;101081.72;;;11.62;89.76
78411;BME280;67706;51.074;-1.796;2023-08-06T01:02:59;101083.41;;;11.63;89.70
78411;BME280;67706;51.074;-1.796;2023-08-06T01:05:26;101086.56;;;11.60;89.92
78411;BME280;67706;51.074;-1.796;2023-08-06T01:08:07;101090.34;;;11.59;89.75
78411;BME280;67706;51.074;-1.796;2023-08-06T01:10:43;101093.22;;;11.51;90.23
78411;BME280;67706;51.074;-1.796;2023-08-06T01:13:18;101093.81;;;11.46;90.28
78411;BME280;67706;51.074;-1.796;2023-08-06T01:15:53;101092.72;;;11.41;90.24
78411;BME280;67706;51.074;-1.796;2023-08-06T01:18:22;101092.44;;;11.36;90.73
78411;BME280;67706;51.074;-1.796;2023-08-06T01:20:50;101104.03;;;11.31;90.55
78411;BME280;67706;51.074;-1.796;2023-08-06T01:23:17;101101.47;;;11.30;91.09
78411;BME280;67706;51.074;-1.796;2023-08-06T01:25:49;101104.34;;;11.22;91.24
78411;BME280;67706;51.074;-1.796;2023-08-06T01:28:27;101110.22;;;11.18;91.35
78411;BME280;67706;51.074;-1.796;2023-08-06T01:31:02;101105.78;;;11.17;91.41
78411;BME280;67706;51.074;-1.796;2023-08-06T01:33:32;101119.91;;;11.14;91.52
78411;BME280;67706;51.074;-1.796;2023-08-06T01:36:01;101104.88;;;11.10;91.71
78411;BME280;67706;51.074;-1.796;2023-08-06T01:38:28;101100.69;;;11.14;91.31
78411;BME280;67706;51.074;-1.796;2023-08-06T01:40:55;101109.97;;;11.13;91.18
78411;BME280;67706;51.074;-1.796;2023-08-06T01:43:22;101118.88;;;11.15;91.35
78411;BME280;67706;51.074;-1.796;2023-08-06T01:45:49;101130.78;;;11.23;90.82
78411;BME280;67706;51.074;-1.796;2023-08-06T01:48:15;101132.03;;;11.20;90.68
78411;BME280;67706;51.074;-1.796;2023-08-06T01:50:42;101140.06;;;11.22;90.44
78411;BME280;67706;51.074;-1.796;2023-08-06T01:53:10;101139.41;;;11.19;90.62
78411;BME280;67706;51.074;-1.796;2023-08-06T01:55:37;101150.97;;;11.15;90.55
78411;BME280;67706;51.074;-1.796;2023-08-06T01:58:03;101144.81;;;11.13;91.09
78411;BME280;67706;51.074;-1.796;2023-08-06T02:00:30;101150.88;;;11.08;91.25
78411;BME280;67706;51.074;-1.796;2023-08-06T02:02:57;101152.06;;;11.20;90.12
78411;BME280;67706;51.074;-1.796;2023-08-06T02:05:23;101150.72;;;11.10;91.10
78411;BME280;67706;51.074;-1.796;2023-08-06T02:07:50;101150.31;;;11.13;90.42
78411;BME280;67706;51.074;-1.796;2023-08-06T02:10:18;101150.06;;;11.08;90.61
78411;BME280;67706;51.074;-1.796;2023-08-06T02:12:45;101152.47;;;11.17;90.06
78411;BME280;67706;51.074;-1.796;2023-08-06T02:15:12;101148.78;;;11.10;90.41
78411;BME280;67706;51.074;-1.796;2023-08-06T02:17:38;101147.03;;;11.03;90.99
78411;BME280;67706;51.074;-1.796;2023-08-06T02:20:06;101153.63;;;11.08;90.50
78411;BME280;67706;51.074;-1.796;2023-08-06T02:22:33;101155.47;;;11.01;90.63
78411;BME280;67706;51.074;-1.796;2023-08-06T02:25:00;101157.56;;;10.99;91.14
78411;BME280;67706;51.074;-1.796;2023-08-06T02:27:27;101156.78;;;11.05;90.69
78411;BME280;67706;51.074;-1.796;2023-08-06T02:29:54;101155.56;;;11.08;90.52
78411;BME280;67706;51.074;-1.796;2023-08-06T02:32:21;101162.28;;;11.05;90.60
78411;BME280;67706;51.074;-1.796;2023-08-06T02:34:48;101156.78;;;11.05;90.28
78411;BME280;67706;51.074;-1.796;2023-08-06T02:37:14;101159.31;;;11.07;89.90
78411;BME280;67706;51.074;-1.796;2023-08-06T02:39:41;101161.63;;;11.03;90.57
78411;BME280;67706;51.074;-1.796;2023-08-06T02:42:08;101153.19;;;11.05;90.02
78411;BME280;67706;51.074;-1.796;2023-08-06T02:44:36;101157.22;;;11.09;89.98
78411;BME280;67706;51.074;-1.796;2023-08-06T02:47:03;101152.41;;;11.11;89.88
78411;BME280;67706;51.074;-1.796;2023-08-06T02:49:30;101156.56;;;11.07;89.55
78411;BME280;67706;51.074;-1.796;2023-08-06T02:51:57;101161.41;;;11.05;89.87
78411;BME280;67706;51.074;-1.796;2023-08-06T02:54:24;101160.56;;;11.04;89.93
78411;BME280;67706;51.074;-1.796;2023-08-06T02:56:50;101156.66;;;11.13;89.37
78411;BME280;67706;51.074;-1.796;2023-08-06T02:59:17;101162.28;;;11.05;89.63
78411;BME280;67706;51.074;-1.796;2023-08-06T03:01:45;101176.13;;;10.97;89.99
78411;BME280;67706;51.074;-1.796;2023-08-06T03:04:12;101179.88;;;10.96;90.04
78411;BME280;67706;51.074;-1.796;2023-08-06T03:06:38;101170.91;;;10.88;90.60
78411;BME280;67706;51.074;-1.796;2023-08-06T03:09:05;101171.47;;;10.83;91.24
78411;BME280;67706;51.074;-1.796;2023-08-06T03:11:32;101174.63;;;10.80;91.88
78411;BME280;67706;51.074;-1.796;2023-08-06T03:13:58;101185.31;;;10.75;92.09
78411;BME280;67706;51.074;-1.796;2023-08-06T03:16:25;101185.75;;;10.79;91.29
78411;BME280;67706;51.074;-1.796;2023-08-06T03:18:53;101186.06;;;10.84;90.69
78411;BME280;67706;51.074;-1.796;2023-08-06T03:21:20;101178.03;;;10.82;91.02
78411;BME280;67706;51.074;-1.796;2023-08-06T03:23:47;101182.75;;;10.74;91.59
78411;BME280;67706;51.074;-1.796;2023-08-06T03:26:14;101188.72;;;10.77;91.34
78411;BME280;67706;51.074;-1.796;2023-08-06T03:28:41;101181.78;;;10.81;90.78
78411;BME280;67706;51.074;-1.796;2023-08-06T03:31:07;101184.94;;;10.78;90.95
78411;BME280;67706;51.074;-1.796;2023-08-06T03:33:34;101191.84;;;10.74;91.09
78411;BME280;67706;51.074;-1.796;2023-08-06T03:36:02;101192.31;;;10.63;92.06
78411;BME280;67706;51.074;-1.796;2023-08-06T03:38:29;101184.66;;;10.59;92.91
78411;BME280;67706;51.074;-1.796;2023-08-06T03:40:56;101176.22;;;10.60;92.07
78411;BME280;67706;51.074;-1.796;2023-08-06T03:43:22;101187.88;;;10.62;92.13
78411;BME280;67706;51.074;-1.796;2023-08-06T03:45:49;101180.38;;;10.56;92.29
78411;BME280;67706;51.074;-1.796;2023-08-06T03:48:16;101184.97;;;10.49;93.08
78411;BME280;67706;51.074;-1.796;2023-08-06T03:50:42;101185.31;;;10.46;93.36
78411;BME280;67706;51.074;-1.796;2023-08-06T03:53:10;101186.38;;;10.45;93.43
78411;BME280;67706;51.074;-1.796;2023-08-06T03:55:37;101186.75;;;10.42;93.32
78411;BME280;67706;51.074;-1.796;2023-08-06T03:58:04;101185.31;;;10.46;93.86
78411;BME280;67706;51.074;-1.796;2023-08-06T04:00:30;101184.66;;;10.44;93.18
78411;BME280;67706;51.074;-1.796;2023-08-06T04:02:57;101186.94;;;10.41;94.42
78411;BME280;67706;51.074;-1.796;2023-08-06T04:05:24;101187.69;;;10.34;94.65
78411;BME280;67706;51.074;-1.796;2023-08-06T04:07:51;101190.31;;;10.28;94.73
78411;BME280;67706;51.074;-1.796;2023-08-06T04:10:19;101192.97;;;10.36;94.35
78411;BME280;67706;51.074;-1.796;2023-08-06T04:12:45;101192.97;;;10.36;94.06
78411;BME280;67706;51.074;-1.796;2023-08-06T04:15:12;101190.50;;;10.41;93.62
78411;BME280;67706;51.074;-1.796;2023-08-06T04:17:39;101194.59;;;10.45;93.51
78411;BME280;67706;51.074;-1.796;2023-08-06T04:20:07;101197.50;;;10.58;92.71
78411;BME280;67706;51.074;-1.796;2023-08-06T04:22:34;101199.91;;;10.47;92.98
78411;BME280;67706;51.074;-1.796;2023-08-06T04:25:00;101199.41;;;10.43;93.63
78411;BME280;67706;51.074;-1.796;2023-08-06T04:27:28;101200.25;;;10.44;93.65
78411;BME280;67706;51.074;-1.796;2023-08-06T04:29:55;101203.38;;;10.41;93.74
78411;BME280;67706;51.074;-1.796;2023-08-06T04:32:22;101200.81;;;10.39;94.19
78411;BME280;67706;51.074;-1.796;2023-08-06T04:34:49;101209.78;;;10.33;94.94
78411;BME280;67706;51.074;-1.796;2023-08-06T04:37:15;101213.00;;;10.22;95.35
78411;BME280;67706;51.074;-1.796;2023-08-06T04:39:42;101215.66;;;10.15;95.43
78411;BME280;67706;51.074;-1.796;2023-08-06T04:42:09;101219.22;;;10.16;95.79
78411;BME280;67706;51.074;-1.796;2023-08-06T04:44:37;101221.28;;;10.14;95.78
78411;BME280;67706;51.074;-1.796;2023-08-06T04:47:03;101223.88;;;10.15;95.71
78411;BME280;67706;51.074;-1.796;2023-08-06T04:49:30;101218.38;;;10.15;96.14
78411;BME280;67706;51.074;-1.796;2023-08-06T04:51:57;101225.28;;;10.11;96.31
78411;BME280;67706;51.074;-1.796;2023-08-06T04:54:24;101223.41;;;10.04;96.47
78411;BME280;67706;51.074;-1.796;2023-08-06T04:56:50;101230.88;;;10.10;96.33
78411;BME280;67706;51.074;-1.796;2023-08-06T04:59:17;101228.50;;;10.15;96.44
78411;BME280;67706;51.074;-1.796;2023-08-06T05:01:45;101232.44;;;10.12;96.53
78411;BME280;67706;51.074;-1.796;2023-08-06T05:04:12;101238.13;;;10.11;96.18
78411;BME280;67706;51.074;-1.796;2023-08-06T05:06:38;101245.91;;;10.22;95.59
78411;BME280;67706;51.074;-1.796;2023-08-06T05:09:05;101246.84;;;10.29;94.85
78411;BME280;67706;51.074;-1.796;2023-08-06T05:11:32;101251.88;;;10.25;95.02
78411;BME280;67706;51.074;-1.796;2023-08-06T05:13:59;101256.50;;;10.25;95.00
78411;BME280;67706;51.074;-1.796;2023-08-06T05:16:25;101257.81;;;10.29;94.60
78411;BME280;67706;51.074;-1.796;2023-08-06T05:18:53;101259.03;;;10.26;94.92
78411;BME280;67706;51.074;-1.796;2023-08-06T05:21:20;101250.16;;;10.24;95.60
78411;BME280;67706;51.074;-1.796;2023-08-06T05:23:47;101261.91;;;10.33;94.34
78411;BME280;67706;51.074;-1.796;2023-08-06T05:26:13;101258.50;;;10.31;95.09
78411;BME280;67706;51.074;-1.796;2023-08-06T05:28:43;101266.47;;;10.41;94.45
78411;BME280;67706;51.074;-1.796;2023-08-06T05:31:10;101260.97;;;10.41;94.37
78411;BME280;67706;51.074;-1.796;2023-08-06T05:33:37;101268.53;;;10.38;94.71
78411;BME280;67706;51.074;-1.796;2023-08-06T05:36:05;101272.69;;;10.34;95.19
78411;BME280;67706;51.074;-1.796;2023-08-06T05:38:32;101264.94;;;10.38;95.07
78411;BME280;67706;51.074;-1.796;2023-08-06T05:40:59;101270.69;;;10.43;94.86
78411;BME280;67706;51.074;-1.796;2023-08-06T05:43:25;101276.59;;;10.55;94.39
78411;BME280;67706;51.074;-1.796;2023-08-06T05:45:52;101276.81;;;10.68;94.92
78411;BME280;67706;51.074;-1.796;2023-08-06T05:48:19;101277.59;;;10.76;93.59
78411;BME280;67706;51.074;-1.796;2023-08-06T05:50:48;101281.09;;;10.70;93.97
78411;BME280;67706;51.074;-1.796;2023-08-06T05:53:16;101290.63;;;10.74;93.31
78411;BME280;67706;51.074;-1.796;2023-08-06T05:55:43;101281.91;;;10.85;93.27
78411;BME280;67706;51.074;-1.796;2023-08-06T05:58:10;101286.66;;;10.91;92.70
78411;BME280;67706;51.074;-1.796;2023-08-06T06:00:36;101287.69;;;10.90;93.21
78411;BME280;67706;51.074;-1.796;2023-08-06T06:03:03;101287.59;;;10.98;92.71
78411;BME280;67706;51.074;-1.796;2023-08-06T06:05:30;101296.22;;;11.10;92.06
78411;BME280;67706;51.074;-1.796;2023-08-06T06:07:56;101295.06;;;11.19;91.54
78411;BME280;67706;51.074;-1.796;2023-08-06T06:10:24;101298.56;;;11.28;90.90
78411;BME280;67706;51.074;-1.796;2023-08-06T06:12:51;101301.28;;;11.42;89.87
78411;BME280;67706;51.074;-1.796;2023-08-06T06:15:18;101294.66;;;11.51;89.80
78411;BME280;67706;51.074;-1.796;2023-08-06T06:17:44;101298.06;;;11.68;88.97
78411;BME280;67706;51.074;-1.796;2023-08-06T06:20:11;101296.91;;;11.77;88.13
78411;BME280;67706;51.074;-1.796;2023-08-06T06:22:38;101299.75;;;11.90;86.90
78411;BME280;67706;51.074;-1.796;2023-08-06T06:25:06;101297.88;;;12.12;85.27
78411;BME280;67706;51.074;-1.796;2023-08-06T06:27:34;101295.50;;;12.30;84.25
78411;BME280;67706;51.074;-1.796;2023-08-06T06:30:01;101293.88;;;12.35;84.21
78411;BME280;67706;51.074;-1.796;2023-08-06T06:32:28;101298.50;;;12.56;82.71
78411;BME280;67706;51.074;-1.796;2023-08-06T06:34:55;101303.25;;;12.68;82.42
78411;BME280;67706;51.074;-1.796;2023-08-06T06:37:21;101307.75;;;12.76;82.22
78411;BME280;67706;51.074;-1.796;2023-08-06T06:39:48;101299.63;;;12.96;81.67
78411;BME280;67706;51.074;-1.796;2023-08-06T06:42:15;101305.53;;;13.20;80.52
78411;BME280;67706;51.074;-1.796;2023-08-06T06:44:43;101322.53;;;13.30;80.10
78411;BME280;67706;51.074;-1.796;2023-08-06T06:47:09;101309.47;;;13.45;80.08
78411;BME280;67706;51.074;-1.796;2023-08-06T06:49:36;101313.91;;;13.40;80.05
78411;BME280;67706;51.074;-1.796;2023-08-06T06:52:03;101317.31;;;13.42;80.56
78411;BME280;67706;51.074;-1.796;2023-08-06T06:54:30;101320.06;;;13.42;80.45
78411;BME280;67706;51.074;-1.796;2023-08-06T06:56:57;101321.34;;;13.46;79.99
78411;BME280;67706;51.074;-1.796;2023-08-06T06:59:24;101326.03;;;13.52;80.30
78411;BME280;67706;51.074;-1.796;2023-08-06T07:01:52;101330.97;;;13.63;79.82
78411;BME280;67706;51.074;-1.796;2023-08-06T07:04:19;101330.78;;;13.71;79.19
78411;BME280;67706;51.074;-1.796;2023-08-06T07:06:45;101341.00;;;13.77;79.20
78411;BME280;67706;51.074;-1.796;2023-08-06T07:09:12;101337.63;;;13.88;79.19
78411;BME280;67706;51.074;-1.796;2023-08-06T07:11:39;101340.41;;;14.01;79.49
78411;BME280;67706;51.074;-1.796;2023-08-06T07:14:07;101347.59;;;13.89;80.74
78411;BME280;67706;51.074;-1.796;2023-08-06T07:16:34;101339.75;;;13.86;80.91
78411;BME280;67706;51.074;-1.796;2023-08-06T07:19:02;101346.56;;;13.90;81.45
78411;BME280;67706;51.074;-1.796;2023-08-06T07:21:30;101347.38;;;13.91;81.33
78411;BME280;67706;51.074;-1.796;2023-08-06T07:23:57;101351.88;;;13.98;81.34
78411;BME280;67706;51.074;-1.796;2023-08-06T07:26:24;101347.84;;;13.94;81.55
78411;BME280;67706;51.074;-1.796;2023-08-06T07:28:51;101349.38;;;14.16;80.91
78411;BME280;67706;51.074;-1.796;2023-08-06T07:31:18;101342.88;;;14.30;80.63
78411;BME280;67706;51.074;-1.796;2023-08-06T07:33:45;101340.06;;;14.24;79.09
78411;BME280;67706;51.074;-1.796;2023-08-06T07:36:14;101342.88;;;14.30;78.81
78411;BME280;67706;51.074;-1.796;2023-08-06T07:38:41;101339.84;;;14.25;78.36
78411;BME280;67706;51.074;-1.796;2023-08-06T07:41:08;101339.78;;;13.99;77.67
78411;BME280;67706;51.074;-1.796;2023-08-06T07:43:35;101348.69;;;13.88;78.09
78411;BME280;67706;51.074;-1.796;2023-08-06T07:46:02;101341.03;;;13.90;78.93
78411;BME280;67706;51.074;-1.796;2023-08-06T07:48:28;101338.09;;;13.98;78.87
78411;BME280;67706;51.074;-1.796;2023-08-06T07:50:55;101350.00;;;14.05;78.65
78411;BME280;67706;51.074;-1.796;2023-08-06T07:53:25;101338.97;;;14.12;79.22
78411;BME280;67706;51.074;-1.796;2023-08-06T07:55:55;101342.81;;;14.17;78.76
78411;BME280;67706;51.074;-1.796;2023-08-06T07:58:23;101336.28;;;14.31;78.82
78411;BME280;67706;51.074;-1.796;2023-08-06T08:00:50;101344.56;;;14.38;78.37
78411;BME280;67706;51.074;-1.796;2023-08-06T08:03:17;101335.88;;;14.48;78.06
78411;BME280;67706;51.074;-1.796;2023-08-06T08:05:45;101348.00;;;14.60;77.14
78411;BME280;67706;51.074;-1.796;2023-08-06T08:08:11;101345.44;;;14.71;77.17
78411;BME280;67706;51.074;-1.796;2023-08-06T08:10:39;101342.03;;;14.69;76.32
78411;BME280;67706;51.074;-1.796;2023-08-06T08:13:06;101350.56;;;14.74;76.87
78411;BME280;67706;51.074;-1.796;2023-08-06T08:15:33;101333.13;;;14.87;75.80
78411;BME280;67706;51.074;-1.796;2023-08-06T08:18:01;101340.31;;;14.68;76.60
78411;BME280;67706;51.074;-1.796;2023-08-06T08:20:27;101328.88;;;14.65;75.69
78411;BME280;67706;51.074;-1.796;2023-08-06T08:22:57;101339.91;;;14.78;75.83
78411;BME280;67706;51.074;-1.796;2023-08-06T08:25:24;101336.72;;;15.00;75.08
78411;BME280;67706;51.074;-1.796;2023-08-06T08:27:53;101327.53;;;15.13;75.09
78411;BME280;67706;51.074;-1.796;2023-08-06T08:30:20;101333.03;;;15.39;73.82
78411;BME280;67706;51.074;-1.796;2023-08-06T08:32:47;101332.56;;;15.42;72.90
78411;BME280;67706;51.074;-1.796;2023-08-06T08:35:14;101336.38;;;15.54;72.26
78411;BME280;67706;51.074;-1.796;2023-08-06T08:37:41;101327.69;;;15.51;73.02
78411;BME280;67706;51.074;-1.796;2023-08-06T08:40:08;101331.69;;;15.61;73.21
78411;BME280;67706;51.074;-1.796;2023-08-06T08:42:36;101328.50;;;15.64;70.27
78411;BME280;67706;51.074;-1.796;2023-08-06T08:45:06;101334.88;;;16.03;70.87
78411;BME280;67706;51.074;-1.796;2023-08-06T08:47:37;101331.78;;;15.86;71.07
78411;BME280;67706;51.074;-1.796;2023-08-06T08:50:06;101327.38;;;15.72;70.14
78411;BME280;67706;51.074;-1.796;2023-08-06T08:52:35;101326.56;;;15.65;69.79
78411;BME280;67706;51.074;-1.796;2023-08-06T08:55:02;101327.03;;;15.55;69.00
78411;BME280;67706;51.074;-1.796;2023-08-06T08:57:29;101333.47;;;15.43;69.87
78411;BME280;67706;51.074;-1.796;2023-08-06T08:59:56;101333.41;;;15.56;69.23
78411;BME280;67706;51.074;-1.796;2023-08-06T09:02:25;101323.97;;;15.76;68.67
78411;BME280;67706;51.074;-1.796;2023-08-06T09:04:55;101322.44;;;15.87;67.20
78411;BME280;67706;51.074;-1.796;2023-08-06T09:07:26;101317.69;;;15.94;67.05
78411;BME280;67706;51.074;-1.796;2023-08-06T09:09:53;101319.06;;;16.16;66.08
78411;BME280;67706;51.074;-1.796;2023-08-06T09:12:22;101317.22;;;16.35;66.39
78411;BME280;67706;51.074;-1.796;2023-08-06T09:14:48;101315.13;;;16.30;66.25
78411;BME280;67706;51.074;-1.796;2023-08-06T09:17:16;101320.44;;;16.32;66.51
78411;BME280;67706;51.074;-1.796;2023-08-06T09:19:46;101320.38;;;16.38;66.11
78411;BME280;67706;51.074;-1.796;2023-08-06T09:22:15;101320.72;;;16.48;64.55
78411;BME280;67706;51.074;-1.796;2023-08-06T09:24:42;101327.16;;;16.42;62.39
78411;BME280;67706;51.074;-1.796;2023-08-06T09:27:12;101326.25;;;16.55;62.63
78411;BME280;67706;51.074;-1.796;2023-08-06T09:29:41;101332.88;;;16.79;62.61
78411;BME280;67706;51.074;-1.796;2023-08-06T09:32:09;101331.19;;;17.02;62.55
78411;BME280;67706;51.074;-1.796;2023-08-06T09:34:38;101328.09;;;17.10;62.75
78411;BME280;67706;51.074;-1.796;2023-08-06T09:37:08;101336.47;;;16.86;64.13
78411;BME280;67706;51.074;-1.796;2023-08-06T09:39:38;101337.09;;;16.63;64.71
78411;BME280;67706;51.074;-1.796;2023-08-06T09:42:05;101353.78;;;16.50;64.54
78411;BME280;67706;51.074;-1.796;2023-08-06T09:44:33;101348.78;;;16.65;63.69
78411;BME280;67706;51.074;-1.796;2023-08-06T09:47:01;101344.59;;;16.81;62.91
78411;BME280;67706;51.074;-1.796;2023-08-06T09:49:40;101350.31;;;16.86;62.41
78411;BME280;67706;51.074;-1.796;2023-08-06T09:52:11;101350.06;;;16.87;61.95
78411;BME280;67706;51.074;-1.796;2023-08-06T09:54:39;101345.91;;;17.03;61.40
78411;BME280;67706;51.074;-1.796;2023-08-06T09:57:06;101343.28;;;17.08;60.70
78411;BME280;67706;51.074;-1.796;2023-08-06T09:59:33;101339.72;;;17.01;60.38
78411;BME280;67706;51.074;-1.796;2023-08-06T10:02:00;101341.59;;;17.25;60.06
78411;BME280;67706;51.074;-1.796;2023-08-06T10:04:29;101339.84;;;17.30;60.26
78411;BME280;67706;51.074;-1.796;2023-08-06T10:06:56;101342.13;;;17.58;59.93
78411;BME280;67706;51.074;-1.796;2023-08-06T10:09:25;101343.13;;;17.82;59.58
78411;BME280;67706;51.074;-1.796;2023-08-06T10:11:52;101346.81;;;17.76;58.58
78411;BME280;67706;51.074;-1.796;2023-08-06T10:14:22;101351.78;;;17.49;59.02
78411;BME280;67706;51.074;-1.796;2023-08-06T10:16:51;101354.78;;;17.29;60.06
78411;BME280;67706;51.074;-1.796;2023-08-06T10:19:18;101355.66;;;17.30;60.51
78411;BME280;67706;51.074;-1.796;2023-08-06T10:22:10;101349.38;;;17.34;58.67
78411;BME280;67706;51.074;-1.796;2023-08-06T10:24:52;101341.78;;;17.48;58.75
78411;BME280;67706;51.074;-1.796;2023-08-06T10:27:23;101344.56;;;17.66;57.60
78411;BME280;67706;51.074;-1.796;2023-08-06T10:29:49;101342.09;;;17.94;57.64
78411;BME280;67706;51.074;-1.796;2023-08-06T10:32:16;101337.19;;;18.08;55.71
78411;BME280;67706;51.074;-1.796;2023-08-06T10:34:56;101330.66;;;18.02;54.96
78411;BME280;67706;51.074;-1.796;2023-08-06T10:37:23;101327.91;;;18.14;56.51
78411;BME280;67706;51.074;-1.796;2023-08-06T10:39:52;101340.91;;;18.32;55.06
78411;BME280;67706;51.074;-1.796;2023-08-06T10:42:20;101338.88;;;18.68;55.18
78411;BME280;67706;51.074;-1.796;2023-08-06T10:45:12;101339.56;;;18.52;55.65
78411;BME280;67706;51.074;-1.796;2023-08-06T10:47:39;101343.03;;;18.48;56.14
78411;BME280;67706;51.074;-1.796;2023-08-06T10:50:07;101342.09;;;18.54;56.19
78411;BME280;67706;51.074;-1.796;2023-08-06T10:52:33;101344.13;;;18.17;56.28
78411;BME280;67706;51.074;-1.796;2023-08-06T10:55:02;101347.06;;;18.34;56.53
78411;BME280;67706;51.074;-1.796;2023-08-06T10:57:28;101348.22;;;18.14;57.58
78411;BME280;67706;51.074;-1.796;2023-08-06T10:59:55;101348.00;;;17.98;57.60
78411;BME280;67706;51.074;-1.796;2023-08-06T11:02:22;101353.66;;;17.91;58.98
78411;BME280;67706;51.074;-1.796;2023-08-06T11:04:49;101354.97;;;17.89;59.55
78411;BME280;67706;51.074;-1.796;2023-08-06T11:07:15;101360.25;;;18.08;59.44
78411;BME280;67706;51.074;-1.796;2023-08-06T11:09:42;101359.88;;;18.05;56.40
78411;BME280;67706;51.074;-1.796;2023-08-06T11:12:10;101357.66;;;18.25;56.09
78411;BME280;67706;51.074;-1.796;2023-08-06T11:14:37;101357.44;;;18.26;56.56
78411;BME280;67706;51.074;-1.796;2023-08-06T11:17:04;101361.63;;;18.17;56.14
78411;BME280;67706;51.074;-1.796;2023-08-06T11:19:31;101351.38;;;18.18;56.51
78411;BME280;67706;51.074;-1.796;2023-08-06T11:21:58;101379.03;;;17.77;57.71
78411;BME280;67706;51.074;-1.796;2023-08-06T11:24:26;101372.88;;;17.57;57.57
78411;BME280;67706;51.074;-1.796;2023-08-06T11:26:53;101371.03;;;17.51;56.83
78411;BME280;67706;51.074;-1.796;2023-08-06T11:29:21;101372.59;;;17.40;56.75
78411;BME280;67706;51.074;-1.796;2023-08-06T11:31:49;101368.63;;;17.54;57.31
78411;BME280;67706;51.074;-1.796;2023-08-06T11:34:16;101375.13;;;17.41;56.76
78411;BME280;67706;51.074;-1.796;2023-08-06T11:36:43;101379.28;;;17.32;56.88
78411;BME280;67706;51.074;-1.796;2023-08-06T11:39:09;101368.03;;;17.27;58.11
78411;BME280;67706;51.074;-1.796;2023-08-06T11:41:36;101369.22;;;17.38;58.22
78411;BME280;67706;51.074;-1.796;2023-08-06T11:44:05;101369.72;;;17.28;58.24
78411;BME280;67706;51.074;-1.796;2023-08-06T11:46:51;101358.50;;;17.41;57.68
78411;BME280;67706;51.074;-1.796;2023-08-06T11:49:18;101361.00;;;17.50;57.62
78411;BME280;67706;51.074;-1.796;2023-08-06T11:51:47;101360.09;;;17.74;56.43
78411;BME280;67706;51.074;-1.796;2023-08-06T11:54:14;101353.97;;;17.83;56.12
78411;BME280;67706;51.074;-1.796;2023-08-06T11:56:40;101354.81;;;17.84;55.68
78411;BME280;67706;51.074;-1.796;2023-08-06T11:59:08;101352.16;;;18.07;55.50
78411;BME280;67706;51.074;-1.796;2023-08-06T12:01:35;101350.22;;;18.37;55.14
78411;BME280;67706;51.074;-1.796;2023-08-06T12:04:05;101356.03;;;18.77;54.84
78411;BME280;67706;51.074;-1.796;2023-08-06T12:06:41;101345.19;;;18.98;54.86
78411;BME280;67706;51.074;-1.796;2023-08-06T12:09:09;101353.16;;;18.83;53.39
78411;BME280;67706;51.074;-1.796;2023-08-06T12:11:36;101349.28;;;18.84;52.77
78411;BME280;67706;51.074;-1.796;2023-08-06T12:14:03;101349.44;;;19.24;52.49
78411;BME280;67706;51.074;-1.796;2023-08-06T12:16:29;101354.53;;;19.39;51.56
78411;BME280;67706;51.074;-1.796;2023-08-06T12:18:56;101353.19;;;19.18;52.26
78411;BME280;67706;51.074;-1.796;2023-08-06T12:21:24;101345.81;;;19.12;53.32
78411;BME280;67706;51.074;-1.796;2023-08-06T12:23:51;101353.16;;;18.83;53.82
78411;BME280;67706;51.074;-1.796;2023-08-06T12:26:17;101370.72;;;18.54;56.32
78411;BME280;67706;51.074;-1.796;2023-08-06T12:28:44;101374.47;;;18.00;64.14
78411;BME280;67706;51.074;-1.796;2023-08-06T12:31:11;101377.34;;;17.76;65.86
78411;BME280;67706;51.074;-1.796;2023-08-06T12:33:37;101379.00;;;17.40;65.51
78411;BME280;67706;51.074;-1.796;2023-08-06T12:36:04;101375.47;;;17.52;66.98
78411;BME280;67706;51.074;-1.796;2023-08-06T12:38:32;101378.09;;;17.46;67.62
78411;BME280;67706;51.074;-1.796;2023-08-06T12:40:59;101370.94;;;17.57;65.37
78411;BME280;67706;51.074;-1.796;2023-08-06T12:43:25;101365.41;;;17.57;64.77